sensor_id;sensor_type;location;lat;lon;timestamp;pressure;altitude;pressure_sealevel;temperature;humidity
4133;BME280;2080;51.038;7.008;2023-01-30T00:00:53;77336.31;;;-142.53;100.00
4133;BME280;2080;51.038;7.008;2023-01-30T00:03:22;77313.00;;;-142.53;100.00
4133;BME280;2080;51.038;7.008;2023-01-30T00:05:48;77301.34;;;-142.53;100.00
4133;BME280;2080;51.038;7.008;2023-01-30T00:08:14;77285.78;;;-142.53;100.00
4133;BME280;2080;51.038;7.008;2023-01-30T00:10:40;77256.66;;;-142.53;100.00
4133;BME280;2080;51.038;7.008;2023-01-30T00:13:05;77245.00;;;-142.53;100.00
4133;BME280;2080;51.038;7.008;2023-01-30T00:15:31;77258.59;;;-142.53;100.00
4133;BME280;2080;51.038;7.008;2023-01-30T00:17:56;77252.78;;;-142.53;100.00
4133;BME280;2080;51.038;7.008;2023-01-30T00:20:24;77276.09;;;-142.53;100.00
4133;BME280;2080;51.038;7.008;2023-01-30T00:22:53;77295.50;;;-142.53;100.00
4133;BME280;2080;51.038;7.008;2023-01-30T00:25:19;77279.97;;;-142.53;100.00
4133;BME280;2080;51.038;7.008;2023-01-30T00:27:47;77264.44;;;-142.53;100.00
4133;BME280;2080;51.038;7.008;2023-01-30T00:30:13;77239.16;;;-142.53;100.00
4133;BME280;2080;51.038;7.008;2023-01-30T00:32:38;77221.69;;;-142.53;100.00
4133;BME280;2080;51.038;7.008;2023-01-30T00:35:04;77211.97;;;-142.53;100.00
4133;BME280;2080;51.038;7.008;2023-01-30T00:37:31;77198.38;;;-142.53;100.00
4133;BME280;2080;51.038;7.008;2023-01-30T00:39:58;77190.59;;;-142.53;100.00
4133;BME280;2080;51.038;7.008;2023-01-30T00:42:24;77178.94;;;-142.53;100.00
4133;BME280;2080;51.038;7.008;2023-01-30T00:45:10;77186.72;;;-142.53;100.00
4133;BME280;2080;51.038;7.008;2023-01-30T00:47:56;77196.44;;;-142.53;100.00
4133;BME280;2080;51.038;7.008;2023-01-30T00:50:28;77202.25;;;-142.53;100.00
4133;BME280;2080;51.038;7.008;2023-01-30T00:53:13;77194.47;;;-142.53;100.00
4133;BME280;2080;51.038;7.008;2023-01-30T00:55:41;77190.59;;;-142.53;100.00
4133;BME280;2080;51.038;7.008;2023-01-30T00:58:10;77190.59;;;-142.53;100.00
4133;BME280;2080;51.038;7.008;2023-01-30T01:00:38;77159.53;;;-142.53;100.00
4133;BME280;2080;51.038;7.008;2023-01-30T01:03:06;77147.84;;;-142.53;100.00
4133;BME280;2080;51.038;7.008;2023-01-30T01:05:33;77132.31;;;-142.53;100.00
4133;BME280;2080;51.038;7.008;2023-01-30T01:07:59;77151.75;;;-142.53;100.00
4133;BME280;2080;51.038;7.008;2023-01-30T01:10:25;77132.31;;;-142.53;100.00
4133;BME280;2080;51.038;7.008;2023-01-30T01:12:52;77130.38;;;-142.53;100.00
4133;BME280;2080;51.038;7.008;2023-01-30T01:15:21;77132.31;;;-142.53;100.00
4133;BME280;2080;51.038;7.008;2023-01-30T01:17:47;77124.53;;;-142.53;100.00
4133;BME280;2080;51.038;7.008;2023-01-30T01:20:15;77116.78;;;-142.53;100.00
4133;BME280;2080;51.038;7.008;2023-01-30T01:22:40;77097.34;;;-142.53;100.00
4133;BME280;2080;51.038;7.008;2023-01-30T01:25:09;77097.34;;;-142.53;100.00
4133;BME280;2080;51.038;7.008;2023-01-30T01:27:35;77110.94;;;-142.53;100.00
4133;BME280;2080;51.038;7.008;2023-01-30T01:30:01;77097.34;;;-142.53;100.00
4133;BME280;2080;51.038;7.008;2023-01-30T01:32:26;77105.13;;;-142.53;100.00
4133;BME280;2080;51.038;7.008;2023-01-30T01:34:52;77103.19;;;-142.53;100.00
4133;BME280;2080;51.038;7.008;2023-01-30T01:37:17;77089.56;;;-142.53;100.00
4133;BME280;2080;51.038;7.008;2023-01-30T01:39:43;77093.47;;;-142.53;100.00
4133;BME280;2080;51.038;7.008;2023-01-30T01:42:32;77101.22;;;-142.53;100.00
4133;BME280;2080;51.038;7.008;2023-01-30T01:50:19;77087.63;;;-142.53;100.00
4133;BME280;2080;51.038;7.008;2023-01-30T01:52:47;77105.13;;;-142.53;100.00
4133;BME280;2080;51.038;7.008;2023-01-30T01:55:15;77074.03;;;-142.53;100.00
4133;BME280;2080;51.038;7.008;2023-01-30T01:57:46;77085.69;;;-142.53;100.00
4133;BME280;2080;51.038;7.008;2023-01-30T02:00:16;77093.47;;;-142.53;100.00
4133;BME280;2080;51.038;7.008;2023-01-30T02:02:49;77097.34;;;-142.53;100.00
4133;BME280;2080;51.038;7.008;2023-01-30T02:05:17;77089.56;;;-142.53;100.00
4133;BME280;2080;51.038;7.008;2023-01-30T02:07:49;77081.81;;;-142.53;100.00
4133;BME280;2080;51.038;7.008;2023-01-30T02:10:24;77068.22;;;-142.53;100.00
4133;BME280;2080;51.038;7.008;2023-01-30T02:12:51;77062.38;;;-142.53;100.00
4133;BME280;2080;51.038;7.008;2023-01-30T02:15:19;77058.50;;;-142.53;100.00
4133;BME280;2080;51.038;7.008;2023-01-30T02:17:44;77062.38;;;-142.53;100.00
4133;BME280;2080;51.038;7.008;2023-01-30T02:20:15;77054.59;;;-142.53;100.00
4133;BME280;2080;51.038;7.008;2023-01-30T02:45:35;77035.19;;;-142.53;100.00
4133;BME280;2080;51.038;7.008;2023-01-30T02:48:12;77031.28;;;-142.53;100.00
4133;BME280;2080;51.038;7.008;2023-01-30T02:50:54;77048.78;;;-142.53;100.00
4133;BME280;2080;51.038;7.008;2023-01-30T02:53:24;77027.41;;;-142.53;100.00
4133;BME280;2080;51.038;7.008;2023-01-30T02:55:52;77035.19;;;-142.53;100.00
4133;BME280;2080;51.038;7.008;2023-01-30T02:58:20;77019.63;;;-142.53;100.00
4133;BME280;2080;51.038;7.008;2023-01-30T03:01:40;77023.53;;;-142.53;100.00
4133;BME280;2080;51.038;7.008;2023-01-30T03:04:03;76994.38;;;-142.53;100.00
4133;BME280;2080;51.038;7.008;2023-01-30T03:06:33;77007.97;;;-142.53;100.00
4133;BME280;2080;51.038;7.008;2023-01-30T03:09:15;76992.44;;;-142.53;100.00
4133;BME280;2080;51.038;7.008;2023-01-30T03:12:05;77006.03;;;-142.53;100.00
4133;BME280;2080;51.038;7.008;2023-01-30T03:14:43;77004.09;;;-142.53;100.00
4133;BME280;2080;51.038;7.008;2023-01-30T03:17:15;76992.44;;;-142.53;100.00
4133;BME280;2080;51.038;7.008;2023-01-30T03:19:42;76973.00;;;-142.53;100.00
4133;BME280;2080;51.038;7.008;2023-01-30T03:22:08;76996.31;;;-142.53;100.00
4133;BME280;2080;51.038;7.008;2023-01-30T03:24:33;76992.44;;;-142.53;100.00
4133;BME280;2080;51.038;7.008;2023-01-30T03:27:08;76969.13;;;-142.53;100.00
4133;BME280;2080;51.038;7.008;2023-01-30T03:29:35;76980.78;;;-142.53;100.00
4133;BME280;2080;51.038;7.008;2023-01-30T03:32:00;76973.00;;;-142.53;100.00
4133;BME280;2080;51.038;7.008;2023-01-30T03:34:28;76961.34;;;-142.53;100.00
4133;BME280;2080;51.038;7.008;2023-01-30T03:36:54;76969.13;;;-142.53;100.00
4133;BME280;2080;51.038;7.008;2023-01-30T03:39:19;76957.47;;;-142.53;100.00
4133;BME280;2080;51.038;7.008;2023-01-30T03:41:45;76945.81;;;-142.53;100.00
4133;BME280;2080;51.038;7.008;2023-01-30T03:44:10;76934.16;;;-142.53;100.00
4133;BME280;2080;51.038;7.008;2023-01-30T03:46:38;76953.59;;;-142.53;100.00
4133;BME280;2080;51.038;7.008;2023-01-30T03:49:03;76934.16;;;-142.53;100.00
4133;BME280;2080;51.038;7.008;2023-01-30T03:51:34;76932.22;;;-142.53;100.00
4133;BME280;2080;51.038;7.008;2023-01-30T03:54:01;76906.97;;;-142.53;100.00
4133;BME280;2080;51.038;7.008;2023-01-30T03:56:27;76926.41;;;-142.53;100.00
4133;BME280;2080;51.038;7.008;2023-01-30T03:58:52;76895.31;;;-142.53;100.00
4133;BME280;2080;51.038;7.008;2023-01-30T04:01:18;76918.63;;;-142.53;100.00
4133;BME280;2080;51.038;7.008;2023-01-30T04:03:43;76895.31;;;-142.53;100.00
4133;BME280;2080;51.038;7.008;2023-01-30T04:06:09;76891.44;;;-142.53;100.00
4133;BME280;2080;51.038;7.008;2023-01-30T04:08:36;76879.78;;;-142.53;100.00
4133;BME280;2080;51.038;7.008;2023-01-30T04:11:02;76868.13;;;-142.53;100.00
4133;BME280;2080;51.038;7.008;2023-01-30T04:13:29;76883.66;;;-142.53;100.00
4133;BME280;2080;51.038;7.008;2023-01-30T04:16:22;76895.31;;;-142.53;100.00
4133;BME280;2080;51.038;7.008;2023-01-30T04:18:52;76883.66;;;-142.53;100.00
4133;BME280;2080;51.038;7.008;2023-01-30T04:21:20;76872.00;;;-142.53;100.00
4133;BME280;2080;51.038;7.008;2023-01-30T04:23:46;76891.44;;;-142.53;100.00
4133;BME280;2080;51.038;7.008;2023-01-30T04:26:11;76875.88;;;-142.53;100.00
4133;BME280;2080;51.038;7.008;2023-01-30T04:28:40;76879.78;;;-142.53;100.00
4133;BME280;2080;51.038;7.008;2023-01-30T04:31:06;76864.22;;;-142.53;100.00
4133;BME280;2080;51.038;7.008;2023-01-30T04:33:32;76872.00;;;-142.53;100.00
4133;BME280;2080;51.038;7.008;2023-01-30T04:36:01;76872.00;;;-142.53;100.00
4133;BME280;2080;51.038;7.008;2023-01-30T04:38:29;76879.78;;;-142.53;100.00
4133;BME280;2080;51.038;7.008;2023-01-30T04:40:57;76879.78;;;-142.53;100.00
4133;BME280;2080;51.038;7.008;2023-01-30T04:43:27;76862.28;;;-142.53;100.00
4133;BME280;2080;51.038;7.008;2023-01-30T04:45:53;76835.09;;;-142.53;100.00
4133;BME280;2080;51.038;7.008;2023-01-30T04:48:19;76838.97;;;-142.53;100.00
4133;BME280;2080;51.038;7.008;2023-01-30T04:50:48;76840.91;;;-142.53;100.00
4133;BME280;2080;51.038;7.008;2023-01-30T04:53:15;76856.47;;;-142.53;100.00
4133;BME280;2080;51.038;7.008;2023-01-30T04:55:42;76852.56;;;-142.53;100.00
4133;BME280;2080;51.038;7.008;2023-01-30T04:58:10;76854.50;;;-142.53;100.00
4133;BME280;2080;51.038;7.008;2023-01-30T05:00:38;76873.94;;;-142.53;100.00
4133;BME280;2080;51.038;7.008;2023-01-30T05:03:03;76852.56;;;-142.53;100.00
4133;BME280;2080;51.038;7.008;2023-01-30T05:05:29;76837.03;;;-142.53;100.00
4133;BME280;2080;51.038;7.008;2023-01-30T05:07:54;76860.34;;;-142.53;100.00
4133;BME280;2080;51.038;7.008;2023-01-30T05:10:20;76856.47;;;-142.53;100.00
4133;BME280;2080;51.038;7.008;2023-01-30T05:12:45;76872.00;;;-142.53;100.00
4133;BME280;2080;51.038;7.008;2023-01-30T05:15:14;76883.66;;;-142.53;100.00
4133;BME280;2080;51.038;7.008;2023-01-30T05:17:39;76891.44;;;-142.53;100.00
4133;BME280;2080;51.038;7.008;2023-01-30T05:20:07;76899.19;;;-142.53;100.00
4133;BME280;2080;51.038;7.008;2023-01-30T05:22:33;76903.09;;;-142.53;100.00
4133;BME280;2080;51.038;7.008;2023-01-30T05:25:01;76895.31;;;-142.53;100.00
4133;BME280;2080;51.038;7.008;2023-01-30T05:27:26;76903.09;;;-142.53;100.00
4133;BME280;2080;51.038;7.008;2023-01-30T05:29:54;76887.53;;;-142.53;100.00
4133;BME280;2080;51.038;7.008;2023-01-30T05:32:19;76893.38;;;-142.53;100.00
4133;BME280;2080;51.038;7.008;2023-01-30T05:34:46;76879.78;;;-142.53;100.00
4133;BME280;2080;51.038;7.008;2023-01-30T05:37:14;76875.88;;;-142.53;100.00
4133;BME280;2080;51.038;7.008;2023-01-30T05:39:40;76860.34;;;-142.53;100.00
4133;BME280;2080;51.038;7.008;2023-01-30T05:42:05;76875.88;;;-142.53;100.00
4133;BME280;2080;51.038;7.008;2023-01-30T05:44:33;76879.78;;;-142.53;100.00
4133;BME280;2080;51.038;7.008;2023-01-30T05:47:01;76879.78;;;-142.53;100.00
4133;BME280;2080;51.038;7.008;2023-01-30T05:49:26;76868.13;;;-142.53;100.00
4133;BME280;2080;51.038;7.008;2023-01-30T05:51:51;76879.78;;;-142.53;100.00
4133;BME280;2080;51.038;7.008;2023-01-30T05:54:19;76862.28;;;-142.53;100.00
4133;BME280;2080;51.038;7.008;2023-01-30T05:56:50;76879.78;;;-142.53;100.00
4133;BME280;2080;51.038;7.008;2023-01-30T05:59:15;76881.72;;;-142.53;100.00
4133;BME280;2080;51.038;7.008;2023-01-30T06:01:45;76893.38;;;-142.53;100.00
4133;BME280;2080;51.038;7.008;2023-01-30T06:04:10;76883.66;;;-142.53;100.00
4133;BME280;2080;51.038;7.008;2023-01-30T06:06:35;76872.00;;;-142.53;100.00
4133;BME280;2080;51.038;7.008;2023-01-30T06:09:01;76883.66;;;-142.53;100.00
4133;BME280;2080;51.038;7.008;2023-01-30T06:11:26;76864.22;;;-142.53;100.00
4133;BME280;2080;51.038;7.008;2023-01-30T06:13:54;76864.22;;;-142.53;100.00
4133;BME280;2080;51.038;7.008;2023-01-30T06:16:22;76844.81;;;-142.53;100.00
4133;BME280;2080;51.038;7.008;2023-01-30T06:18:52;76852.56;;;-142.53;100.00
4133;BME280;2080;51.038;7.008;2023-01-30T06:21:20;76852.56;;;-142.53;100.00
4133;BME280;2080;51.038;7.008;2023-01-30T06:23:45;76852.56;;;-142.53;100.00
4133;BME280;2080;51.038;7.008;2023-01-30T06:26:11;76860.34;;;-142.53;100.00
4133;BME280;2080;51.038;7.008;2023-01-30T06:28:39;76885.59;;;-142.53;100.00
4133;BME280;2080;51.038;7.008;2023-01-30T06:31:07;76875.88;;;-142.53;100.00
4133;BME280;2080;51.038;7.008;2023-01-30T06:33:38;76885.59;;;-142.53;100.00
4133;BME280;2080;51.038;7.008;2023-01-30T06:36:03;76856.47;;;-142.53;100.00
4133;BME280;2080;51.038;7.008;2023-01-30T06:38:28;76852.56;;;-142.53;100.00
4133;BME280;2080;51.038;7.008;2023-01-30T06:40:54;76844.81;;;-142.53;100.00
4133;BME280;2080;51.038;7.008;2023-01-30T06:43:19;76848.69;;;-142.53;100.00
4133;BME280;2080;51.038;7.008;2023-01-30T06:45:47;76829.25;;;-142.53;100.00
4133;BME280;2080;51.038;7.008;2023-01-30T06:48:12;76819.56;;;-142.53;100.00
4133;BME280;2080;51.038;7.008;2023-01-30T06:50:40;76817.59;;;-142.53;100.00
4133;BME280;2080;51.038;7.008;2023-01-30T06:53:07;76809.84;;;-142.53;100.00
4133;BME280;2080;51.038;7.008;2023-01-30T06:55:34;76837.03;;;-142.53;100.00
4133;BME280;2080;51.038;7.008;2023-01-30T06:58:10;76825.38;;;-142.53;100.00
4133;BME280;2080;51.038;7.008;2023-01-30T07:00:37;76827.31;;;-142.53;100.00
4133;BME280;2080;51.038;7.008;2023-01-30T07:03:13;76813.72;;;-142.53;100.00
4133;BME280;2080;51.038;7.008;2023-01-30T07:05:41;76811.78;;;-142.53;100.00
4133;BME280;2080;51.038;7.008;2023-01-30T07:08:07;76837.03;;;-142.53;100.00
4133;BME280;2080;51.038;7.008;2023-01-30T07:10:32;76825.38;;;-142.53;100.00
4133;BME280;2080;51.038;7.008;2023-01-30T07:12:58;76813.72;;;-142.53;100.00
4133;BME280;2080;51.038;7.008;2023-01-30T07:15:28;76805.94;;;-142.53;100.00
4133;BME280;2080;51.038;7.008;2023-01-30T07:17:54;76817.59;;;-142.53;100.00
4133;BME280;2080;51.038;7.008;2023-01-30T07:20:19;76792.34;;;-142.53;100.00
4133;BME280;2080;51.038;7.008;2023-01-30T07:22:52;76813.72;;;-142.53;100.00
4133;BME280;2080;51.038;7.008;2023-01-30T07:25:19;76798.19;;;-142.53;100.00
4133;BME280;2080;51.038;7.008;2023-01-30T07:27:56;76774.88;;;-142.53;100.00
4133;BME280;2080;51.038;7.008;2023-01-30T07:30:26;76786.53;;;-142.53;100.00
4133;BME280;2080;51.038;7.008;2023-01-30T07:32:53;76786.53;;;-142.53;100.00
4133;BME280;2080;51.038;7.008;2023-01-30T07:35:23;76790.41;;;-142.53;100.00
4133;BME280;2080;51.038;7.008;2023-01-30T07:37:49;76786.53;;;-142.53;100.00
4133;BME280;2080;51.038;7.008;2023-01-30T07:40:19;76798.19;;;-142.53;100.00
4133;BME280;2080;51.038;7.008;2023-01-30T07:42:57;76796.25;;;-142.53;100.00
4133;BME280;2080;51.038;7.008;2023-01-30T07:45:23;76798.19;;;-142.53;100.00
4133;BME280;2080;51.038;7.008;2023-01-30T07:47:51;76790.41;;;-142.53;100.00
4133;BME280;2080;51.038;7.008;2023-01-30T07:50:18;76770.97;;;-142.53;100.00
4133;BME280;2080;51.038;7.008;2023-01-30T07:52:46;76788.47;;;-142.53;100.00
4133;BME280;2080;51.038;7.008;2023-01-30T07:55:12;76776.81;;;-142.53;100.00
4133;BME280;2080;51.038;7.008;2023-01-30T07:57:39;76774.88;;;-142.53;100.00
4133;BME280;2080;51.038;7.008;2023-01-30T08:00:05;76759.34;;;-142.53;100.00
4133;BME280;2080;51.038;7.008;2023-01-30T08:02:31;76763.22;;;-142.53;100.00
4133;BME280;2080;51.038;7.008;2023-01-30T08:04:57;76763.22;;;-142.53;100.00
4133;BME280;2080;51.038;7.008;2023-01-30T08:07:22;76751.56;;;-142.53;100.00
4133;BME280;2080;51.038;7.008;2023-01-30T08:09:47;76747.66;;;-142.53;100.00
4133;BME280;2080;51.038;7.008;2023-01-30T08:12:13;76759.34;;;-142.53;100.00
4133;BME280;2080;51.038;7.008;2023-01-30T08:14:38;76747.66;;;-142.53;100.00
4133;BME280;2080;51.038;7.008;2023-01-30T08:17:04;76749.63;;;-142.53;100.00
4133;BME280;2080;51.038;7.008;2023-01-30T08:19:29;76763.22;;;-142.53;100.00
4133;BME280;2080;51.038;7.008;2023-01-30T08:21:55;76739.91;;;-142.53;100.00
4133;BME280;2080;51.038;7.008;2023-01-30T08:24:20;76747.66;;;-142.53;100.00
4133;BME280;2080;51.038;7.008;2023-01-30T08:26:47;76739.91;;;-142.53;100.00
4133;BME280;2080;51.038;7.008;2023-01-30T08:29:13;76736.03;;;-142.53;100.00
4133;BME280;2080;51.038;7.008;2023-01-30T08:31:39;76755.44;;;-142.53;100.00
4133;BME280;2080;51.038;7.008;2023-01-30T08:34:06;76770.97;;;-142.53;100.00
4133;BME280;2080;51.038;7.008;2023-01-30T08:36:32;76774.88;;;-142.53;100.00
4133;BME280;2080;51.038;7.008;2023-01-30T08:38:59;76763.22;;;-142.53;100.00
4133;BME280;2080;51.038;7.008;2023-01-30T08:41:25;76747.66;;;-142.53;100.00
4133;BME280;2080;51.038;7.008;2023-01-30T08:43:52;76749.63;;;-142.53;100.00
4133;BME280;2080;51.038;7.008;2023-01-30T08:46:18;76759.34;;;-142.53;100.00
4133;BME280;2080;51.038;7.008;2023-01-30T08:48:46;76755.44;;;-142.53;100.00
4133;BME280;2080;51.038;7.008;2023-01-30T08:51:13;76736.03;;;-142.53;100.00
4133;BME280;2080;51.038;7.008;2023-01-30T08:53:43;76704.94;;;-142.53;100.00
4133;BME280;2080;51.038;7.008;2023-01-30T08:56:11;76693.28;;;-142.53;100.00
4133;BME280;2080;51.038;7.008;2023-01-30T08:58:39;76685.50;;;-142.53;100.00
4133;BME280;2080;51.038;7.008;2023-01-30T09:01:05;76666.09;;;-142.53;100.00
4133;BME280;2080;51.038;7.008;2023-01-30T09:03:33;76658.31;;;-142.53;100.00
4133;BME280;2080;51.038;7.008;2023-01-30T09:05:59;76650.56;;;-142.53;100.00
4133;BME280;2080;51.038;7.008;2023-01-30T09:08:25;76654.44;;;-142.53;100.00
4133;BME280;2080;51.038;7.008;2023-01-30T09:10:52;76644.72;;;-142.53;100.00
4133;BME280;2080;51.038;7.008;2023-01-30T09:13:21;76650.56;;;-142.53;100.00
4133;BME280;2080;51.038;7.008;2023-01-30T09:15:46;76669.97;;;-142.53;100.00
4133;BME280;2080;51.038;7.008;2023-01-30T09:18:12;76629.19;;;-142.53;100.00
4133;BME280;2080;51.038;7.008;2023-01-30T09:20:37;76627.25;;;-142.53;100.00
4133;BME280;2080;51.038;7.008;2023-01-30T09:23:03;76580.63;;;-142.53;100.00
4133;BME280;2080;51.038;7.008;2023-01-30T09:25:30;76580.63;;;-142.53;100.00
4133;BME280;2080;51.038;7.008;2023-01-30T09:27:58;76537.88;;;-142.53;100.00
4133;BME280;2080;51.038;7.008;2023-01-30T09:30:29;76541.78;;;-142.53;100.00
4133;BME280;2080;51.038;7.008;2023-01-30T09:32:54;76545.66;;;-142.53;100.00
4133;BME280;2080;51.038;7.008;2023-01-30T09:35:20;76543.72;;;-142.53;100.00
4133;BME280;2080;51.038;7.008;2023-01-30T09:37:50;76522.34;;;-142.53;100.00
4133;BME280;2080;51.038;7.008;2023-01-30T09:40:18;76514.56;;;-142.53;100.00
4133;BME280;2080;51.038;7.008;2023-01-30T09:45:41;76491.28;;;-142.53;100.00
4133;BME280;2080;51.038;7.008;2023-01-30T09:48:14;76483.50;;;-142.53;100.00
4133;BME280;2080;51.038;7.008;2023-01-30T09:50:55;76522.34;;;-142.53;100.00
4133;BME280;2080;51.038;7.008;2023-01-30T09:55:56;76512.63;;;-142.53;100.00
4133;BME280;2080;51.038;7.008;2023-01-30T09:58:24;76508.75;;;-142.53;97.60
4133;BME280;2080;51.038;7.008;2023-01-30T10:00:55;76539.84;;;-142.53;97.64
4133;BME280;2080;51.038;7.008;2023-01-30T10:03:30;76491.28;;;-142.53;95.17
4133;BME280;2080;51.038;7.008;2023-01-30T10:06:10;76520.41;;;-142.53;95.04
4133;BME280;2080;51.038;7.008;2023-01-30T10:08:52;76524.28;;;-142.53;93.28
4133;BME280;2080;51.038;7.008;2023-01-30T10:11:38;76508.75;;;-142.53;95.62
4133;BME280;2080;51.038;7.008;2023-01-30T10:25:02;76553.44;;;-142.53;90.48
4133;BME280;2080;51.038;7.008;2023-01-30T10:27:33;76572.84;;;-142.53;91.47
4133;BME280;2080;51.038;7.008;2023-01-30T10:30:03;76553.44;;;-142.53;91.96
4133;BME280;2080;51.038;7.008;2023-01-30T10:35:19;76592.28;;;-142.53;87.79
4133;BME280;2080;51.038;7.008;2023-01-30T10:43:21;76613.66;;;-142.53;89.45
4133;BME280;2080;51.038;7.008;2023-01-30T10:54:02;76646.66;;;-142.53;89.37
4133;BME280;2080;51.038;7.008;2023-01-30T10:59:59;76625.28;;;-142.53;87.94
4133;BME280;2080;51.038;7.008;2023-01-30T11:02:01;76615.59;;;-142.53;88.16
4133;BME280;2080;51.038;7.008;2023-01-30T11:04:40;76611.69;;;-142.53;86.70
4133;BME280;2080;51.038;7.008;2023-01-30T11:07:11;76642.78;;;-142.53;88.76
4133;BME280;2080;51.038;7.008;2023-01-30T11:12:03;76625.28;;;-142.53;86.83
4133;BME280;2080;51.038;7.008;2023-01-30T11:14:57;76642.78;;;-142.53;87.07
4133;BME280;2080;51.038;7.008;2023-01-30T11:17:31;76609.75;;;-142.53;87.54
4133;BME280;2080;51.038;7.008;2023-01-30T11:20:06;76627.25;;;-142.53;86.75
4133;BME280;2080;51.038;7.008;2023-01-30T11:22:35;76615.59;;;-142.53;86.43
4133;BME280;2080;51.038;7.008;2023-01-30T11:25:14;76642.78;;;-142.53;85.68
4133;BME280;2080;51.038;7.008;2023-01-30T11:27:41;76627.25;;;-142.53;84.03
4133;BME280;2080;51.038;7.008;2023-01-30T11:32:41;76629.19;;;-142.53;84.41
4133;BME280;2080;51.038;7.008;2023-01-30T11:37:39;76611.69;;;-142.53;85.55
4133;BME280;2080;51.038;7.008;2023-01-30T11:42:46;76592.28;;;-142.53;85.02
4133;BME280;2080;51.038;7.008;2023-01-30T11:45:12;76584.50;;;-142.53;84.27
4133;BME280;2080;51.038;7.008;2023-01-30T11:47:49;76584.50;;;-142.53;81.77
4133;BME280;2080;51.038;7.008;2023-01-30T11:50:17;76580.63;;;-142.53;82.43
4133;BME280;2080;51.038;7.008;2023-01-30T11:52:46;76576.72;;;-142.53;83.57
4133;BME280;2080;51.038;7.008;2023-01-30T11:55:14;76549.53;;;-142.53;82.85
4133;BME280;2080;51.038;7.008;2023-01-30T11:57:43;76551.47;;;-142.53;83.21
4133;BME280;2080;51.038;7.008;2023-01-30T12:00:42;76539.84;;;-142.53;82.37
4133;BME280;2080;51.038;7.008;2023-01-30T12:03:13;76557.31;;;-142.53;80.22
4133;BME280;2080;51.038;7.008;2023-01-30T12:05:43;76553.44;;;-142.53;81.46
4133;BME280;2080;51.038;7.008;2023-01-30T12:10:59;76557.31;;;-142.53;80.57
4133;BME280;2080;51.038;7.008;2023-01-30T12:13:41;76576.72;;;-142.53;80.48
4133;BME280;2080;51.038;7.008;2023-01-30T12:16:24;76580.63;;;-142.53;81.68
4133;BME280;2080;51.038;7.008;2023-01-30T12:21:33;76588.38;;;-142.53;82.89
4133;BME280;2080;51.038;7.008;2023-01-30T12:27:03;76611.69;;;-142.53;83.82
4133;BME280;2080;51.038;7.008;2023-01-30T12:29:37;76600.03;;;-142.53;83.63
4133;BME280;2080;51.038;7.008;2023-01-30T12:34:33;76582.56;;;-142.53;82.81
4133;BME280;2080;51.038;7.008;2023-01-30T12:42:28;76592.28;;;-142.53;80.98
4133;BME280;2080;51.038;7.008;2023-01-30T12:50:10;76522.34;;;-142.53;77.72
4133;BME280;2080;51.038;7.008;2023-01-30T12:57:58;76514.56;;;-142.53;75.13
4133;BME280;2080;51.038;7.008;2023-01-30T13:03:49;76502.91;;;-142.53;70.14
4133;BME280;2080;51.038;7.008;2023-01-30T13:09:08;76518.47;;;-142.53;71.96
4133;BME280;2080;51.038;7.008;2023-01-30T13:11:49;76528.19;;;-142.53;70.20
4133;BME280;2080;51.038;7.008;2023-01-30T13:14:35;76549.53;;;-142.53;70.46
4133;BME280;2080;51.038;7.008;2023-01-30T13:17:15;76518.47;;;-142.53;66.26
4133;BME280;2080;51.038;7.008;2023-01-30T13:20:02;76537.88;;;-142.53;64.21
4133;BME280;2080;51.038;7.008;2023-01-30T13:25:37;76553.44;;;-142.53;67.47
4133;BME280;2080;51.038;7.008;2023-01-30T13:28:17;76586.44;;;-142.53;69.53
4133;BME280;2080;51.038;7.008;2023-01-30T13:30:48;76594.22;;;-142.53;68.72
4133;BME280;2080;51.038;7.008;2023-01-30T13:33:20;76572.84;;;-142.53;67.02
4133;BME280;2080;51.038;7.008;2023-01-30T13:38:33;76580.63;;;-142.53;69.43
4133;BME280;2080;51.038;7.008;2023-01-30T13:41:07;76580.63;;;-142.53;67.49
4133;BME280;2080;51.038;7.008;2023-01-30T13:43:47;76580.63;;;-142.53;67.45
4133;BME280;2080;51.038;7.008;2023-01-30T13:46:20;76572.84;;;-142.53;68.13
4133;BME280;2080;51.038;7.008;2023-01-30T13:54:01;76598.09;;;-142.53;66.50
4133;BME280;2080;51.038;7.008;2023-01-30T14:07:27;76638.91;;;-142.53;68.12
4133;BME280;2080;51.038;7.008;2023-01-30T14:12:50;76658.31;;;-142.53;69.14
4133;BME280;2080;51.038;7.008;2023-01-30T14:20:31;76640.84;;;-142.53;69.08
4133;BME280;2080;51.038;7.008;2023-01-30T14:38:17;76673.84;;;-142.53;70.24
4133;BME280;2080;51.038;7.008;2023-01-30T14:40:45;76658.31;;;-142.53;70.71
4133;BME280;2080;51.038;7.008;2023-01-30T14:48:30;76638.91;;;-142.53;69.20
4133;BME280;2080;51.038;7.008;2023-01-30T14:56:56;76675.81;;;-142.53;70.58
4133;BME280;2080;51.038;7.008;2023-01-30T15:07:27;76699.13;;;-142.53;68.61
4133;BME280;2080;51.038;7.008;2023-01-30T15:09:56;76704.94;;;-142.53;69.67
4133;BME280;2080;51.038;7.008;2023-01-30T15:24:11;76747.66;;;-142.53;72.25
4133;BME280;2080;51.038;7.008;2023-01-30T15:32:12;76780.69;;;-142.53;72.81
4133;BME280;2080;51.038;7.008;2023-01-30T15:34:48;76798.19;;;-142.53;73.52
4133;BME280;2080;51.038;7.008;2023-01-30T15:37:28;76829.25;;;-142.53;76.50
4133;BME280;2080;51.038;7.008;2023-01-30T15:45:20;76903.09;;;-142.53;84.05
4133;BME280;2080;51.038;7.008;2023-01-30T15:48:09;76903.09;;;-142.53;85.16
4133;BME280;2080;51.038;7.008;2023-01-30T15:50:38;76883.66;;;-142.53;83.61
4133;BME280;2080;51.038;7.008;2023-01-30T15:53:12;76885.59;;;-142.53;83.29
4133;BME280;2080;51.038;7.008;2023-01-30T15:55:42;76899.19;;;-142.53;84.63
4133;BME280;2080;51.038;7.008;2023-01-30T15:58:11;76883.66;;;-142.53;83.17
4133;BME280;2080;51.038;7.008;2023-01-30T16:00:44;76895.31;;;-142.53;83.48
4133;BME280;2080;51.038;7.008;2023-01-30T16:03:13;76918.63;;;-142.53;83.75
4133;BME280;2080;51.038;7.008;2023-01-30T16:05:48;76926.41;;;-142.53;83.84
4133;BME280;2080;51.038;7.008;2023-01-30T16:08:21;76912.78;;;-142.53;83.50
4133;BME280;2080;51.038;7.008;2023-01-30T16:10:46;76941.94;;;-142.53;84.57
4133;BME280;2080;51.038;7.008;2023-01-30T16:13:16;76947.75;;;-142.53;85.31
4133;BME280;2080;51.038;7.008;2023-01-30T16:16:23;76973.00;;;-142.53;86.23
4133;BME280;2080;51.038;7.008;2023-01-30T16:18:52;76984.66;;;-142.53;86.47